Time;durP1;ratioP1;P1;durP2;ratioP2;P2;SDS_P1;SDS_P2;PMS_P1;PMS_P2;Temp;Humidity;BMP_temperature;BMP_pressure;BME280_temperature;BME280_humidity;BME280_pressure;Samples;Min_cycle;Max_cycle;Signal;HPM_P1;HPM_P2
2021/08/07 00:01:21;;;;;;;21.60;17.80;;;19.50;94.50;;;;;;5053762;28;20025;-59
2021/08/07 00:03:47;;;;;;;23.80;18.92;;;19.50;94.40;;;;;;5053500;28;20071;-60
2021/08/07 00:06:13;;;;;;;21.80;18.13;;;19.50;94.30;;;;;;5053707;28;20496;-62
2021/08/07 00:08:38;;;;;;;19.90;16.63;;;19.50;94.20;;;;;;5053851;28;20052;-59
2021/08/07 00:11:04;;;;;;;21.10;18.15;;;19.40;94.30;;;;;;5053866;28;20427;-60
2021/08/07 00:13:30;;;;;;;20.73;17.52;;;19.40;94.10;;;;;;5053558;28;20498;-61
2021/08/07 00:15:55;;;;;;;21.52;17.13;;;19.40;94.30;;;;;;5052354;28;20029;-60
2021/08/07 00:18:21;;;;;;;19.92;17.45;;;19.40;94.10;;;;;;5054100;28;20064;-60
2021/08/07 00:20:46;;;;;;;20.17;17.85;;;19.30;94.20;;;;;;5054009;28;20028;-59
2021/08/07 00:23:12;;;;;;;20.80;17.55;;;19.30;94.20;;;;;;5053057;28;20099;-60
2021/08/07 00:25:38;;;;;;;19.65;16.17;;;19.30;94.10;;;;;;5052929;28;20038;-60
2021/08/07 00:28:04;;;;;;;20.08;15.85;;;19.30;94.10;;;;;;5053464;28;20029;-59
2021/08/07 00:30:30;;;;;;;19.40;16.08;;;19.30;94.20;;;;;;5052948;28;20025;-60
2021/08/07 00:32:56;;;;;;;19.25;16.08;;;19.30;94.40;;;;;;5053266;28;20426;-60
2021/08/07 00:35:22;;;;;;;18.67;15.18;;;19.30;94.30;;;;;;5053317;28;20025;-60
2021/08/07 00:37:47;;;;;;;19.27;15.90;;;19.30;94.00;;;;;;5052990;28;20369;-61
2021/08/07 00:40:14;;;;;;;19.48;16.05;;;19.30;94.30;;;;;;5051866;28;20469;-61
2021/08/07 00:42:40;;;;;;;19.50;16.20;;;19.30;94.00;;;;;;5053119;28;20060;-61
2021/08/07 00:45:06;;;;;;;21.02;16.40;;;19.30;94.20;;;;;;5052906;28;20025;-60
2021/08/07 00:47:31;;;;;;;18.67;15.65;;;19.30;94.10;;;;;;5053007;28;20047;-60
2021/08/07 00:49:57;;;;;;;19.45;16.55;;;19.30;93.80;;;;;;5052925;28;20029;-60
2021/08/07 00:52:23;;;;;;;21.52;15.68;;;19.30;93.70;;;;;;5052808;28;20025;-59
2021/08/07 00:54:48;;;;;;;20.73;16.17;;;19.30;93.60;;;;;;5053096;28;20039;-60
2021/08/07 00:57:14;;;;;;;17.50;15.60;;;19.20;93.70;;;;;;5051439;28;20021;-59
2021/08/07 00:59:40;;;;;;;19.60;15.15;;;19.20;94.00;;;;;;5052807;28;20029;-60
2021/08/07 01:02:12;;;;;;;19.35;15.68;;;19.10;93.90;;;;;;5052809;28;20025;-59
2021/08/07 01:04:44;;;;;;;22.35;16.70;;;19.10;93.80;;;;;;5052424;28;20043;-59
2021/08/07 01:07:37;;;;;;;20.15;15.75;;;19.10;93.70;;;;;;5052530;28;20122;-59
2021/08/07 01:10:32;;;;;;;17.60;15.00;;;19.10;93.90;;;;;;5052650;28;20029;-59
2021/08/07 01:13:30;;;;;;;20.05;16.30;;;19.00;94.00;;;;;;5042543;28;20041;-60
2021/08/07 01:16:04;;;;;;;19.17;15.85;;;19.00;94.20;;;;;;5040255;28;20037;-60
2021/08/07 01:18:32;;;;;;;18.15;15.68;;;19.00;94.50;;;;;;5052352;28;20052;-60
2021/08/07 01:20:59;;;;;;;17.13;15.15;;;19.10;94.70;;;;;;5052463;28;20029;-59
2021/08/07 01:23:41;;;;;;;17.67;14.65;;;19.10;95.00;;;;;;5052115;28;20074;-60
2021/08/07 01:26:15;;;;;;;18.67;14.67;;;19.10;94.90;;;;;;5052399;28;20116;-60
2021/08/07 01:28:44;;;;;;;17.45;14.90;;;19.10;95.00;;;;;;5052313;28;20032;-60
2021/08/07 01:31:12;;;;;;;20.13;15.30;;;19.20;95.00;;;;;;5052357;28;20833;-60
2021/08/07 01:33:40;;;;;;;18.38;14.55;;;19.20;94.80;;;;;;5052031;28;20029;-60
2021/08/07 01:36:06;;;;;;;18.00;15.32;;;19.30;94.70;;;;;;5052062;28;20025;-60
2021/08/07 01:38:32;;;;;;;16.67;14.70;;;19.30;94.40;;;;;;5051907;28;20048;-59
2021/08/07 01:40:58;;;;;;;19.13;14.73;;;19.30;94.20;;;;;;5052160;28;20477;-60
2021/08/07 01:43:23;;;;;;;17.63;14.60;;;19.30;94.20;;;;;;5051879;28;20350;-59
2021/08/07 01:45:49;;;;;;;18.17;13.82;;;19.30;93.80;;;;;;5051650;28;20093;-59
2021/08/07 01:48:18;;;;;;;16.35;14.07;;;19.30;93.90;;;;;;5051911;28;20083;-59
2021/08/07 01:51:10;;;;;;;16.63;14.48;;;19.30;93.80;;;;;;5052043;28;20505;-59
2021/08/07 01:53:36;;;;;;;16.05;14.23;;;19.20;93.60;;;;;;5051670;28;20035;-60
2021/08/07 01:56:25;;;;;;;16.15;14.00;;;19.20;93.90;;;;;;5051722;28;20495;-60
2021/08/07 01:59:06;;;;;;;17.13;14.00;;;19.20;93.80;;;;;;5051700;28;20024;-60
2021/08/07 02:01:32;;;;;;;17.98;14.75;;;19.10;94.10;;;;;;5051530;28;20099;-59
2021/08/07 02:04:00;;;;;;;17.52;15.15;;;19.10;94.20;;;;;;5051470;28;20528;-59
2021/08/07 02:06:26;;;;;;;17.90;14.75;;;19.10;94.20;;;;;;5051349;28;20051;-59
2021/08/07 02:08:53;;;;;;;18.08;14.90;;;19.10;94.20;;;;;;5051670;28;20436;-59
2021/08/07 02:11:20;;;;;;;20.33;15.23;;;19.10;94.20;;;;;;5051456;28;20024;-59
2021/08/07 02:13:47;;;;;;;17.33;14.32;;;19.10;94.10;;;;;;5051294;28;20025;-59
2021/08/07 02:16:15;;;;;;;18.38;14.30;;;19.10;94.40;;;;;;5051801;28;20033;-60
2021/08/07 02:18:43;;;;;;;17.95;14.20;;;19.10;94.60;;;;;;5051259;28;20388;-59
2021/08/07 02:21:10;;;;;;;16.15;13.75;;;19.10;94.60;;;;;;5051437;28;20501;-59
2021/08/07 02:23:36;;;;;;;17.52;14.68;;;19.10;94.50;;;;;;5051023;28;20017;-59
2021/08/07 02:26:04;;;;;;;18.02;14.65;;;19.10;94.50;;;;;;5051444;28;20440;-59
2021/08/07 02:28:30;;;;;;;16.02;13.45;;;19.10;94.50;;;;;;5051217;28;20132;-59
2021/08/07 02:30:59;;;;;;;19.23;14.73;;;19.10;94.70;;;;;;5051102;28;20033;-60
2021/08/07 02:33:25;;;;;;;18.48;14.43;;;19.00;94.50;;;;;;5051032;28;20036;-60
2021/08/07 02:35:54;;;;;;;17.05;14.57;;;19.10;94.40;;;;;;5051449;28;20384;-60
2021/08/07 02:38:21;;;;;;;19.42;14.20;;;19.00;94.30;;;;;;5051470;28;20078;-59
2021/08/07 02:40:47;;;;;;;17.52;14.73;;;19.00;94.20;;;;;;5051965;28;20017;-60
2021/08/07 02:43:15;;;;;;;18.13;14.98;;;19.00;94.20;;;;;;5050845;28;20487;-60
2021/08/07 02:45:42;;;;;;;18.48;15.23;;;19.00;94.10;;;;;;5051433;28;20376;-59
2021/08/07 02:48:08;;;;;;;19.90;16.02;;;18.90;94.20;;;;;;5053662;28;20118;-59
2021/08/07 02:50:35;;;;;;;18.73;14.90;;;18.90;94.10;;;;;;5055215;28;20029;-60
2021/08/07 02:53:01;;;;;;;18.80;15.20;;;18.90;94.20;;;;;;5055069;28;20079;-59
2021/08/07 02:55:27;;;;;;;17.98;14.63;;;18.90;94.00;;;;;;5055058;28;20071;-59
2021/08/07 02:57:54;;;;;;;17.67;14.48;;;18.90;94.20;;;;;;5055334;28;20032;-61
2021/08/07 03:00:20;;;;;;;19.10;14.55;;;18.90;94.30;;;;;;5055274;28;20021;-60
2021/08/07 03:02:46;;;;;;;19.00;14.93;;;18.90;94.00;;;;;;5055071;28;20384;-60
2021/08/07 03:05:12;;;;;;;19.58;14.65;;;18.80;94.00;;;;;;5054630;28;20041;-60
2021/08/07 03:07:38;;;;;;;17.17;13.35;;;18.80;94.20;;;;;;5054822;28;20047;-60
2021/08/07 03:10:06;;;;;;;18.45;14.57;;;18.80;94.20;;;;;;5054689;28;20025;-61
2021/08/07 03:12:32;;;;;;;17.67;13.50;;;18.80;94.20;;;;;;5054671;28;20082;-59
2021/08/07 03:14:58;;;;;;;19.80;14.43;;;18.70;94.40;;;;;;5054603;28;20040;-59
2021/08/07 03:17:24;;;;;;;17.17;13.95;;;18.70;94.20;;;;;;5054375;28;20029;-60
2021/08/07 03:19:49;;;;;;;18.60;13.40;;;18.70;94.40;;;;;;5054566;28;20100;-61
2021/08/07 03:22:17;;;;;;;19.20;14.70;;;18.70;94.50;;;;;;5053477;28;20017;-61
2021/08/07 03:24:43;;;;;;;18.05;13.95;;;18.70;94.50;;;;;;5054539;28;20025;-61
2021/08/07 03:27:09;;;;;;;18.30;14.45;;;18.70;94.60;;;;;;5054322;28;20029;-59
2021/08/07 03:29:34;;;;;;;18.55;14.52;;;18.70;94.70;;;;;;5054042;28;20086;-59
2021/08/07 03:32:00;;;;;;;15.88;13.35;;;18.70;94.70;;;;;;5054147;28;20021;-60
2021/08/07 03:34:26;;;;;;;16.85;13.60;;;18.70;94.90;;;;;;5054427;28;20559;-60
2021/08/07 03:36:51;;;;;;;17.38;13.40;;;18.70;94.90;;;;;;5054309;28;20096;-60
2021/08/07 03:39:17;;;;;;;18.90;15.07;;;18.60;95.10;;;;;;5054159;28;20053;-60
2021/08/07 03:41:43;;;;;;;19.98;15.05;;;18.70;94.90;;;;;;5054163;28;20032;-60
2021/08/07 03:44:09;;;;;;;17.95;13.93;;;18.70;95.00;;;;;;5054208;28;20029;-60
2021/08/07 03:46:35;;;;;;;19.00;13.93;;;18.60;95.30;;;;;;5053991;28;20040;-60
2021/08/07 03:49:01;;;;;;;19.77;14.38;;;18.70;95.30;;;;;;5053906;28;20029;-60
2021/08/07 03:51:27;;;;;;;16.05;13.23;;;18.80;95.70;;;;;;5053954;28;20483;-61
2021/08/07 03:53:53;;;;;;;18.73;14.43;;;18.80;95.80;;;;;;5053926;28;20025;-59
2021/08/07 03:56:18;;;;;;;18.25;14.30;;;18.90;95.70;;;;;;5053762;28;20017;-60
2021/08/07 03:58:44;;;;;;;18.23;14.05;;;18.90;95.50;;;;;;5052435;28;20083;-60
2021/08/07 04:01:10;;;;;;;18.38;14.00;;;19.00;95.50;;;;;;5053904;28;20135;-60
2021/08/07 04:03:35;;;;;;;18.33;13.85;;;19.00;95.70;;;;;;5053657;28;20017;-61
2021/08/07 04:06:01;;;;;;;19.45;14.43;;;19.10;95.50;;;;;;5053709;28;20060;-60
2021/08/07 04:08:27;;;;;;;18.15;14.50;;;19.10;95.70;;;;;;5053640;28;20033;-61
2021/08/07 04:10:52;;;;;;;19.42;15.43;;;19.20;95.80;;;;;;5053797;28;20035;-60
2021/08/07 04:13:18;;;;;;;22.23;17.15;;;19.20;95.60;;;;;;5053527;28;20028;-61
2021/08/07 04:15:44;;;;;;;20.50;17.05;;;19.20;95.40;;;;;;5053498;28;20075;-60
2021/08/07 04:18:09;;;;;;;22.52;17.25;;;19.20;95.30;;;;;;5053204;28;20109;-61
2021/08/07 04:20:35;;;;;;;18.85;15.90;;;19.20;95.30;;;;;;5053361;28;20079;-62
2021/08/07 04:23:01;;;;;;;19.50;15.43;;;19.20;95.40;;;;;;5053421;28;20107;-61
2021/08/07 04:25:26;;;;;;;18.38;14.73;;;19.30;95.20;;;;;;5053407;28;20535;-62
2021/08/07 04:27:52;;;;;;;19.52;16.60;;;19.30;95.60;;;;;;5053513;28;20029;-62
2021/08/07 04:30:18;;;;;;;21.13;16.17;;;19.30;95.50;;;;;;5053176;28;20032;-62
2021/08/07 04:32:43;;;;;;;18.40;14.52;;;19.40;95.50;;;;;;5053023;28;20025;-62
2021/08/07 04:35:10;;;;;;;19.70;15.27;;;19.40;95.60;;;;;;5053237;28;20024;-62
2021/08/07 04:37:53;;;;;;;19.02;14.27;;;19.40;95.10;;;;;;5053182;28;20017;-63
2021/08/07 04:40:21;;;;;;;18.02;14.07;;;19.40;95.10;;;;;;5052969;28;20048;-63
2021/08/07 04:42:47;;;;;;;19.13;13.90;;;19.40;96.00;;;;;;5053167;28;20440;-64
2021/08/07 04:45:13;;;;;;;19.75;15.85;;;19.50;96.50;;;;;;5052933;28;20039;-64
2021/08/07 04:48:07;;;;;;;21.10;16.55;;;19.60;95.80;;;;;;5052946;28;20468;-63
2021/08/07 04:50:34;;;;;;;23.27;19.05;;;19.60;94.60;;;;;;5052806;28;20039;-64
2021/08/07 04:53:01;;;;;;;27.92;21.60;;;19.60;95.70;;;;;;5052638;28;20095;-63
2021/08/07 04:55:27;;;;;;;27.90;21.73;;;19.60;95.60;;;;;;5052604;28;20025;-62
2021/08/07 04:57:53;;;;;;;29.77;22.25;;;19.60;96.40;;;;;;5052786;28;20073;-63
2021/08/07 05:00:20;;;;;;;37.92;26.58;;;19.70;97.90;;;;;;5052865;28;20415;-63
2021/08/07 05:02:46;;;;;;;36.25;27.30;;;19.80;96.40;;;;;;5052725;28;20024;-62
2021/08/07 05:05:13;;;;;;;37.42;26.98;;;19.80;96.20;;;;;;5052681;28;20049;-63
2021/08/07 05:07:40;;;;;;;36.55;26.55;;;19.80;96.40;;;;;;5052412;28;20036;-63
2021/08/07 05:10:07;;;;;;;42.33;26.40;;;19.90;97.40;;;;;;5052233;28;20025;-63
2021/08/07 05:12:33;;;;;;;49.30;31.17;;;19.90;97.90;;;;;;5052565;28;20055;-64
2021/08/07 05:14:59;;;;;;;46.90;30.13;;;20.00;96.40;;;;;;5052688;28;20059;-65
2021/08/07 05:17:25;;;;;;;54.35;32.58;;;20.00;98.50;;;;;;5052358;28;20039;-66
2021/08/07 05:19:52;;;;;;;58.17;33.65;;;20.10;97.80;;;;;;5052285;28;20443;-67
2021/08/07 05:22:18;;;;;;;55.63;32.63;;;20.20;97.60;;;;;;5052363;28;20036;-67
2021/08/07 05:24:44;;;;;;;58.13;35.25;;;20.30;96.70;;;;;;5052209;28;20048;-68
2021/08/07 05:27:10;;;;;;;51.83;32.45;;;20.30;96.00;;;;;;5052268;28;20021;-67
2021/08/07 05:29:36;;;;;;;53.70;32.60;;;20.20;96.20;;;;;;5052110;28;20036;-67
2021/08/07 05:32:02;;;;;;;65.13;37.55;;;20.20;96.40;;;;;;5052057;28;20468;-67
2021/08/07 05:34:28;;;;;;;60.70;36.75;;;20.20;95.00;;;;;;5051933;28;20134;-69
2021/08/07 05:36:53;;;;;;;60.08;35.72;;;20.10;95.40;;;;;;5052041;28;20032;-70
2021/08/07 05:39:19;;;;;;;64.20;37.05;;;20.10;95.30;;;;;;5052288;28;20037;-70
2021/08/07 05:41:45;;;;;;;62.75;38.00;;;20.00;95.30;;;;;;5052405;28;20032;-70
2021/08/07 05:44:11;;;;;;;61.88;37.60;;;19.90;95.10;;;;;;5052390;28;20048;-71
2021/08/07 05:46:36;;;;;;;61.60;35.28;;;19.90;95.40;;;;;;5051860;28;20435;-72
2021/08/07 05:49:02;;;;;;;71.30;37.38;;;19.80;95.90;;;;;;5051850;28;20103;-71
2021/08/07 05:51:28;;;;;;;68.05;37.38;;;19.90;96.70;;;;;;5051810;28;20056;-71
2021/08/07 05:53:54;;;;;;;75.07;39.30;;;19.90;97.30;;;;;;5051644;28;20033;-71
2021/08/07 05:56:20;;;;;;;68.68;37.03;;;19.90;96.20;;;;;;5051733;28;20388;-70
2021/08/07 05:58:46;;;;;;;65.75;35.83;;;19.90;96.50;;;;;;5051786;28;20032;-70
2021/08/07 06:01:12;;;;;;;70.95;37.58;;;19.90;97.20;;;;;;5051746;28;20380;-69
2021/08/07 06:03:37;;;;;;;73.45;38.40;;;20.00;97.60;;;;;;5051479;28;20036;-70
2021/08/07 06:06:03;;;;;;;69.75;37.00;;;20.00;97.10;;;;;;5050093;28;20088;-69
2021/08/07 06:08:29;;;;;;;70.68;35.63;;;20.10;97.30;;;;;;5051707;28;20120;-69
2021/08/07 06:10:56;;;;;;;66.00;38.47;;;20.10;99.00;;;;;;5051819;28;20369;-68
2021/08/07 06:13:22;;;;;;;68.63;37.97;;;20.20;98.50;;;;;;5051558;28;20416;-68
2021/08/07 06:15:48;;;;;;;67.28;36.28;;;20.30;99.60;;;;;;5050317;28;20036;-67
2021/08/07 06:18:14;;;;;;;71.68;39.63;;;20.50;99.90;;;;;;5051523;28;20033;-67
2021/08/07 06:20:39;;;;;;;71.80;38.17;;;20.60;99.90;;;;;;5051425;28;20036;-67
2021/08/07 06:23:05;;;;;;;68.60;38.92;;;20.80;98.40;;;;;;5050591;28;20017;-67
2021/08/07 06:25:31;;;;;;;60.78;37.30;;;20.90;98.30;;;;;;5051512;28;20029;-66
2021/08/07 06:27:57;;;;;;;64.07;37.80;;;21.10;98.20;;;;;;5051501;28;20567;-66
2021/08/07 06:30:24;;;;;;;52.03;34.42;;;21.20;96.30;;;;;;5051559;28;20118;-67
2021/08/07 06:32:51;;;;;;;47.75;32.65;;;21.30;98.20;;;;;;5051003;28;20032;-66
2021/08/07 06:35:17;;;;;;;46.40;32.28;;;21.40;97.50;;;;;;5051913;28;20021;-66
2021/08/07 06:37:43;;;;;;;43.80;31.88;;;21.50;96.80;;;;;;5051155;28;20033;-67
2021/08/07 06:40:10;;;;;;;39.92;30.98;;;21.70;95.30;;;;;;5049900;28;20051;-66
2021/08/07 06:42:35;;;;;;;42.50;30.92;;;21.70;95.40;;;;;;5051019;28;20109;-65
2021/08/07 06:45:01;;;;;;;39.72;30.02;;;21.90;96.20;;;;;;5051175;28;20118;-67
2021/08/07 06:47:27;;;;;;;34.50;28.10;;;22.00;97.40;;;;;;5050986;28;20557;-66
2021/08/07 06:49:52;;;;;;;32.95;26.40;;;22.30;95.40;;;;;;5051145;28;20029;-66
2021/08/07 06:52:18;;;;;;;29.50;25.08;;;22.30;95.40;;;;;;5051028;28;20013;-66
2021/08/07 06:54:44;;;;;;;30.83;25.55;;;22.50;95.10;;;;;;5049858;28;20021;-65
2021/08/07 06:57:18;;;;;;;27.85;23.52;;;22.70;95.30;;;;;;5049949;28;20017;-65
2021/08/07 06:59:44;;;;;;;28.58;25.08;;;22.80;94.50;;;;;;5050916;28;20031;-66
2021/08/07 07:02:10;;;;;;;26.92;23.45;;;23.10;96.00;;;;;;5050952;28;20021;-66
2021/08/07 07:04:36;;;;;;;23.20;20.70;;;23.30;94.80;;;;;;5050800;28;20013;-66
2021/08/07 07:07:02;;;;;;;23.13;20.35;;;23.50;92.80;;;;;;5050932;28;20029;-64
2021/08/07 07:09:28;;;;;;;21.35;18.95;;;23.50;93.00;;;;;;5050975;28;20032;-65
2021/08/07 07:11:54;;;;;;;22.33;19.92;;;23.60;94.20;;;;;;5051000;28;20388;-65
2021/08/07 07:14:19;;;;;;;19.77;17.67;;;23.80;95.50;;;;;;5051062;28;20029;-65
2021/08/07 07:16:46;;;;;;;18.35;16.42;;;24.10;95.90;;;;;;5050727;28;20116;-65
2021/08/07 07:19:11;;;;;;;17.92;15.95;;;24.30;95.30;;;;;;5051011;28;20467;-65
2021/08/07 07:21:37;;;;;;;14.23;12.80;;;24.30;93.60;;;;;;5050965;28;20098;-65
2021/08/07 07:24:03;;;;;;;13.18;11.80;;;24.30;92.20;;;;;;5049488;28;20025;-64
2021/08/07 07:26:29;;;;;;;13.30;11.90;;;24.10;90.70;;;;;;5050768;28;20395;-65
2021/08/07 07:28:56;;;;;;;13.32;11.93;;;24.00;91.60;;;;;;5050928;28;20017;-65
2021/08/07 07:31:22;;;;;;;13.75;12.18;;;23.90;91.70;;;;;;5050808;28;20052;-64
2021/08/07 07:33:48;;;;;;;12.45;10.30;;;23.90;92.00;;;;;;5052541;28;20033;-64
2021/08/07 07:36:14;;;;;;;11.52;10.32;;;23.90;90.50;;;;;;5054596;28;20044;-64
2021/08/07 07:38:40;;;;;;;12.23;10.93;;;23.90;91.10;;;;;;5054536;28;20040;-64
2021/08/07 07:41:06;;;;;;;12.13;10.30;;;23.90;92.60;;;;;;5054781;28;20032;-64
2021/08/07 07:43:31;;;;;;;13.38;11.18;;;24.00;91.00;;;;;;5054800;28;20028;-64
2021/08/07 07:45:58;;;;;;;12.13;10.15;;;24.00;91.80;;;;;;5054347;28;20102;-63
2021/08/07 07:48:24;;;;;;;11.38;9.93;;;24.10;91.10;;;;;;5054730;28;20021;-63
2021/08/07 07:50:51;;;;;;;11.95;10.35;;;24.10;91.50;;;;;;5054272;28;20025;-64
2021/08/07 07:53:17;;;;;;;11.23;10.02;;;24.20;91.20;;;;;;5054030;28;20025;-63
2021/08/07 07:55:42;;;;;;;10.55;9.43;;;24.30;92.30;;;;;;5054530;28;20031;-63
2021/08/07 07:58:08;;;;;;;12.40;9.05;;;24.40;93.30;;;;;;5054108;28;20021;-63
2021/08/07 08:00:34;;;;;;;10.60;8.93;;;24.50;90.30;;;;;;5053999;28;20075;-63
2021/08/07 08:03:00;;;;;;;9.68;8.27;;;24.50;87.80;;;;;;5053888;28;20025;-64
2021/08/07 08:05:26;;;;;;;10.70;9.02;;;24.50;87.10;;;;;;5054224;28;20557;-64
2021/08/07 08:07:52;;;;;;;9.55;8.55;;;24.50;85.60;;;;;;5053928;28;20033;-61
2021/08/07 08:10:17;;;;;;;9.45;8.43;;;24.50;90.20;;;;;;5053814;28;20036;-63
2021/08/07 08:12:44;;;;;;;8.82;7.93;;;24.50;86.90;;;;;;5053651;28;20440;-61
2021/08/07 08:15:11;;;;;;;9.90;7.97;;;24.50;87.70;;;;;;5053931;28;20104;-62
2021/08/07 08:17:37;;;;;;;10.35;8.32;;;24.50;88.70;;;;;;5053544;28;20024;-62
2021/08/07 08:20:04;;;;;;;10.50;7.70;;;24.80;91.50;;;;;;5053526;28;20017;-62
2021/08/07 08:22:30;;;;;;;11.63;7.75;;;25.00;90.20;;;;;;5053458;28;20075;-60
2021/08/07 08:24:56;;;;;;;10.43;7.22;;;25.10;83.60;;;;;;5053451;28;20025;-61
2021/08/07 08:27:22;;;;;;;10.57;7.03;;;25.10;78.90;;;;;;5053300;28;20029;-61
2021/08/07 08:29:48;;;;;;;11.48;7.43;;;25.10;78.00;;;;;;5053315;28;20044;-60
2021/08/07 08:32:14;;;;;;;9.13;6.80;;;24.90;82.60;;;;;;5053094;28;20029;-62
2021/08/07 08:34:40;;;;;;;9.18;7.13;;;25.00;83.30;;;;;;5053568;28;20125;-59
2021/08/07 08:37:06;;;;;;;9.48;7.05;;;25.10;77.50;;;;;;5053370;28;20868;-60
2021/08/07 08:39:33;;;;;;;10.63;7.90;;;25.10;82.50;;;;;;5053029;28;20032;-61
2021/08/07 08:41:59;;;;;;;9.80;7.65;;;25.30;81.40;;;;;;5053374;28;20085;-60
2021/08/07 08:44:25;;;;;;;11.18;8.38;;;25.40;79.50;;;;;;5052495;28;20028;-60
2021/08/07 08:46:52;;;;;;;14.68;10.93;;;25.70;79.50;;;;;;5053036;28;20025;-60
2021/08/07 08:49:18;;;;;;;11.23;8.75;;;25.90;79.50;;;;;;5053136;28;20025;-61
2021/08/07 08:51:48;;;;;;;11.27;8.73;;;26.30;84.50;;;;;;5053027;28;20039;-61
2021/08/07 08:54:18;;;;;;;8.25;6.82;;;26.80;79.50;;;;;;5053181;28;20632;-61
2021/08/07 08:56:48;;;;;;;10.23;7.50;;;27.20;81.70;;;;;;5052860;28;20029;-62
2021/08/07 08:59:17;;;;;;;8.52;6.78;;;27.50;76.00;;;;;;5053016;28;20384;-61
2021/08/07 09:01:43;;;;;;;6.80;5.82;;;27.80;72.30;;;;;;5052558;28;20029;-61
2021/08/07 09:04:08;;;;;;;6.70;5.68;;;28.10;70.00;;;;;;5053063;28;20029;-61
2021/08/07 09:06:34;;;;;;;6.93;5.35;;;28.30;72.30;;;;;;5052587;28;20044;-62
2021/08/07 09:09:09;;;;;;;6.65;5.50;;;28.60;71.90;;;;;;5052666;28;20039;-62
2021/08/07 09:11:46;;;;;;;7.55;5.90;;;29.00;70.70;;;;;;5052682;28;20075;-61
2021/08/07 09:14:22;;;;;;;11.02;7.57;;;29.30;68.90;;;;;;5053037;28;20068;-61
2021/08/07 09:17:11;;;;;;;8.60;6.55;;;29.50;66.80;;;;;;5052593;28;20507;-62
2021/08/07 09:19:40;;;;;;;7.45;5.70;;;29.50;60.30;;;;;;5052494;28;20024;-61
2021/08/07 09:22:08;;;;;;;7.05;5.50;;;29.20;65.80;;;;;;5052458;28;20051;-63
2021/08/07 09:24:52;;;;;;;6.45;4.80;;;29.20;67.70;;;;;;5052349;28;20108;-62
2021/08/07 09:27:36;;;;;;;5.78;4.53;;;29.40;63.40;;;;;;5052189;28;20031;-63
2021/08/07 09:30:25;;;;;;;4.80;3.60;;;29.90;63.00;;;;;;5052243;28;20051;-62
2021/08/07 09:33:03;;;;;;;4.72;3.45;;;30.20;57.90;;;;;;5032314;28;20033;-63
2021/08/07 09:35:41;;;;;;;4.53;3.08;;;30.30;58.80;;;;;;5032349;28;20033;-62
2021/08/07 09:38:11;;;;;;;5.68;3.13;;;30.30;61.40;;;;;;5032284;28;20447;-63
2021/08/07 09:40:58;;;;;;;4.40;3.20;;;30.70;59.90;;;;;;5032233;28;20029;-63
2021/08/07 09:43:27;;;;;;;4.65;3.20;;;31.00;56.30;;;;;;5032123;28;20538;-63
2021/08/07 09:46:12;;;;;;;4.28;2.90;;;31.20;58.00;;;;;;5032153;28;20022;-62
2021/08/07 09:48:52;;;;;;;4.03;2.60;;;31.40;56.90;;;;;;5031747;28;20083;-62
2021/08/07 09:51:33;;;;;;;5.32;3.30;;;31.40;56.80;;;;;;5032364;28;20548;-63
2021/08/07 09:54:06;;;;;;;6.05;3.42;;;31.40;51.70;;;;;;5032065;28;20021;-63
2021/08/07 09:57:01;;;;;;;4.55;3.17;;;31.40;53.20;;;;;;5031967;28;20025;-62
2021/08/07 09:59:29;;;;;;;4.20;2.78;;;31.50;52.70;;;;;;5027394;28;20117;-63
2021/08/07 10:01:56;;;;;;;4.47;2.78;;;31.70;53.20;;;;;;5031771;28;20366;-63
2021/08/07 10:04:22;;;;;;;4.80;2.70;;;32.10;49.70;;;;;;5031478;28;20520;-63
2021/08/07 10:06:50;;;;;;;4.13;2.50;;;32.20;48.30;;;;;;5031608;28;20061;-62
2021/08/07 10:09:32;;;;;;;3.50;2.13;;;32.10;47.90;;;;;;5031603;28;20025;-63
2021/08/07 10:12:06;;;;;;;3.70;2.30;;;32.10;49.70;;;;;;5031931;28;20028;-63
2021/08/07 10:14:33;;;;;;;3.95;2.13;;;32.50;49.30;;;;;;5030209;28;20109;-62
2021/08/07 10:17:01;;;;;;;3.50;2.10;;;32.90;49.30;;;;;;5031666;28;20017;-63
2021/08/07 10:19:27;;;;;;;3.55;2.22;;;33.30;48.60;;;;;;5031612;28;20029;-63
2021/08/07 10:21:52;;;;;;;3.00;1.90;;;33.70;47.30;;;;;;5031234;28;20029;-63
2021/08/07 10:24:19;;;;;;;3.55;2.00;;;34.00;45.40;;;;;;5031395;28;20532;-63
2021/08/07 10:26:46;;;;;;;5.15;2.13;;;34.00;45.80;;;;;;5031606;28;20159;-63
2021/08/07 10:29:17;;;;;;;3.33;1.90;;;34.10;45.40;;;;;;5031465;28;20026;-62
2021/08/07 10:31:44;;;;;;;3.20;1.90;;;34.30;46.20;;;;;;5042150;28;20040;-63
2021/08/07 10:34:10;;;;;;;3.15;2.05;;;34.60;46.20;;;;;;5051378;28;20067;-62
2021/08/07 10:36:37;;;;;;;4.50;1.98;;;34.90;45.70;;;;;;5051156;28;20549;-63
2021/08/07 10:39:06;;;;;;;3.15;1.85;;;35.10;45.60;;;;;;5051296;28;20036;-62
2021/08/07 10:41:32;;;;;;;2.95;1.90;;;35.40;44.50;;;;;;5051237;28;20048;-62
2021/08/07 10:44:01;;;;;;;3.58;1.90;;;35.40;44.40;;;;;;5050662;28;20028;-63
2021/08/07 10:46:28;;;;;;;3.65;2.00;;;35.60;43.50;;;;;;5050926;28;20029;-63
2021/08/07 10:48:54;;;;;;;3.55;2.00;;;35.40;43.40;;;;;;5050705;28;20144;-62
2021/08/07 10:51:22;;;;;;;4.32;2.10;;;35.30;43.80;;;;;;5050890;28;20017;-63
2021/08/07 10:53:56;;;;;;;4.05;1.98;;;35.50;43.90;;;;;;5050831;28;20036;-63
2021/08/07 10:56:33;;;;;;;3.83;2.20;;;35.60;42.60;;;;;;5051020;28;20037;-63
2021/08/07 10:59:25;;;;;;;3.42;2.00;;;35.60;41.60;;;;;;5050755;28;20029;-62
2021/08/07 11:01:53;;;;;;;4.38;1.90;;;35.50;42.20;;;;;;5050875;28;20098;-62
2021/08/07 11:04:27;;;;;;;2.65;1.60;;;35.50;43.20;;;;;;5050826;28;20028;-62
2021/08/07 11:07:04;;;;;;;3.67;2.08;;;35.60;42.50;;;;;;5050812;28;20057;-61
2021/08/07 11:09:41;;;;;;;3.72;2.08;;;35.90;42.00;;;;;;5053442;28;20021;-63
2021/08/07 11:12:06;;;;;;;4.68;2.50;;;35.90;41.10;;;;;;5054702;28;20017;-61
2021/08/07 11:14:35;;;;;;;3.75;2.20;;;35.60;41.30;;;;;;5053389;28;20371;-62
2021/08/07 11:17:03;;;;;;;3.42;2.00;;;35.50;42.20;;;;;;5054668;28;20025;-63
2021/08/07 11:19:48;;;;;;;4.25;2.10;;;35.50;42.50;;;;;;5054888;28;20801;-62
2021/08/07 11:25:14;;;;;;;3.05;1.90;;;34.60;41.80;;;;;;5055006;28;20581;-63
2021/08/07 11:27:46;;;;;;;3.95;2.20;;;33.80;42.20;;;;;;5054481;28;20029;-64
2021/08/07 11:30:16;;;;;;;4.13;2.10;;;32.80;42.90;;;;;;5054502;28;20053;-65
2021/08/07 11:33:04;;;;;;;4.13;2.20;;;32.10;43.60;;;;;;5054309;28;20075;-62
2021/08/07 11:35:33;;;;;;;3.60;1.90;;;31.50;44.20;;;;;;5054234;28;20021;-62
2021/08/07 11:38:25;;;;;;;4.15;2.10;;;30.90;44.50;;;;;;5054249;28;20029;-62
2021/08/07 11:40:54;;;;;;;3.65;2.05;;;30.50;44.60;;;;;;5054601;28;20100;-63
2021/08/07 11:43:21;;;;;;;3.30;1.92;;;30.20;44.80;;;;;;5054090;28;20029;-62
2021/08/07 11:46:01;;;;;;;3.50;2.00;;;30.20;44.80;;;;;;5054167;28;20025;-62
2021/08/07 11:48:31;;;;;;;4.03;2.00;;;30.60;44.70;;;;;;5054202;28;20407;-64
2021/08/07 11:50:58;;;;;;;3.30;1.88;;;31.20;44.40;;;;;;5054192;28;20025;-63
2021/08/07 11:53:26;;;;;;;2.95;1.70;;;31.70;44.30;;;;;;5053453;28;20052;-63
2021/08/07 11:55:58;;;;;;;3.30;1.80;;;32.00;43.50;;;;;;5053834;28;20021;-62
2021/08/07 11:58:25;;;;;;;3.00;1.73;;;32.00;41.90;;;;;;5054017;28;20029;-62
2021/08/07 12:00:50;;;;;;;3.47;1.90;;;31.70;43.00;;;;;;5052647;28;20116;-63
2021/08/07 12:03:16;;;;;;;3.22;1.90;;;31.20;42.50;;;;;;5054078;28;20112;-63
2021/08/07 12:05:56;;;;;;;3.40;1.92;;;30.60;43.00;;;;;;5054193;28;20563;-62
2021/08/07 12:08:23;;;;;;;5.53;2.00;;;30.10;43.40;;;;;;5052314;28;20025;-64
2021/08/07 12:10:58;;;;;;;3.33;1.90;;;29.60;44.20;;;;;;5053878;28;20013;-63
2021/08/07 12:13:32;;;;;;;3.35;1.90;;;29.20;44.10;;;;;;5054266;28;20101;-63
2021/08/07 12:16:02;;;;;;;3.03;1.70;;;28.80;44.40;;;;;;5053855;28;20147;-64
2021/08/07 12:18:53;;;;;;;3.30;1.70;;;28.50;44.70;;;;;;5053907;28;20033;-63
2021/08/07 12:21:32;;;;;;;4.28;2.20;;;28.30;45.30;;;;;;5052564;28;20029;-62
2021/08/07 12:24:15;;;;;;;4.15;1.98;;;28.10;45.80;;;;;;5053423;28;20025;-62
2021/08/07 12:26:46;;;;;;;4.30;2.15;;;27.90;45.60;;;;;;5052048;28;20357;-63
2021/08/07 12:29:18;;;;;;;4.40;2.28;;;27.70;45.90;;;;;;5053248;28;20053;-63
2021/08/07 12:31:55;;;;;;;3.53;1.92;;;27.50;46.20;;;;;;5053079;28;20027;-63
2021/08/07 12:34:23;;;;;;;3.72;2.00;;;27.30;46.00;;;;;;5053145;28;20029;-63
2021/08/07 12:37:25;;;;;;;3.97;2.20;;;27.00;46.70;;;;;;5052992;28;20074;-62
2021/08/07 12:39:53;;;;;;;3.85;2.22;;;26.90;47.30;;;;;;5011152;28;20061;-63
2021/08/07 12:42:26;;;;;;;4.35;2.35;;;26.70;47.70;;;;;;5045120;28;20037;-63
2021/08/07 12:45:09;;;;;;;4.20;2.20;;;26.60;48.30;;;;;;5052872;28;20472;-64